createdAt,value
2018-10-02T00:02:17.681Z,100728.42
2018-10-02T00:04:45.540Z,100728.99
2018-10-02T00:07:13.779Z,100724.94
2018-10-02T00:09:41.908Z,100725.13
2018-10-02T00:12:15.537Z,100724.54
2018-10-02T00:14:43.671Z,100731.12
2018-10-02T00:17:11.703Z,100726.13
2018-10-02T00:19:40.951Z,100727.00
2018-10-02T00:22:08.758Z,100727.06
2018-10-02T00:24:36.587Z,100728.81
2018-10-02T00:27:04.389Z,100730.26
2018-10-02T00:29:32.229Z,100733.48
2018-10-02T00:32:00.101Z,100733.79
2018-10-02T00:34:28.219Z,100736.62
2018-10-02T00:36:56.052Z,100736.83
2018-10-02T00:39:23.888Z,100735.87
2018-10-02T00:41:51.795Z,100727.39
2018-10-02T00:44:19.650Z,100728.78
2018-10-02T00:46:47.507Z,100724.97
2018-10-02T00:49:15.347Z,100725.72
2018-10-02T00:51:43.529Z,100724.30
2018-10-02T00:54:11.368Z,100719.67
2018-10-02T00:56:39.224Z,100728.59
2018-10-02T00:59:07.151Z,100726.27
2018-10-02T01:01:34.995Z,100727.96
2018-10-02T01:04:02.803Z,100730.33
2018-10-02T01:06:30.615Z,100729.66
2018-10-02T01:08:58.435Z,100736.49
2018-10-02T01:11:26.257Z,100733.89
2018-10-02T01:13:54.063Z,100729.16
2018-10-02T01:16:21.963Z,100729.84
2018-10-02T01:18:49.751Z,100723.70
2018-10-02T01:21:17.553Z,100728.44
2018-10-02T01:23:45.449Z,100733.65
2018-10-02T01:26:13.539Z,100738.66
2018-10-02T01:28:41.308Z,100736.88
2018-10-02T01:31:09.203Z,100736.88
2018-10-02T01:33:36.995Z,100740.78
2018-10-02T01:36:06.415Z,100749.08
2018-10-02T01:38:34.223Z,100752.81
2018-10-02T01:41:01.989Z,100750.38
2018-10-02T01:43:29.748Z,100752.18
2018-10-02T01:45:57.527Z,100747.52
2018-10-02T01:48:25.346Z,100750.50
2018-10-02T01:50:53.138Z,100746.59
2018-10-02T01:53:24.403Z,100753.38
2018-10-02T01:55:52.370Z,100751.27
2018-10-02T01:58:20.164Z,100753.36
2018-10-02T02:00:47.955Z,100757.88
2018-10-02T02:03:15.750Z,100751.38
2018-10-02T02:05:43.536Z,100756.08
2018-10-02T02:08:11.357Z,100756.48
2018-10-02T02:10:39.129Z,100758.73
2018-10-02T02:13:06.899Z,100751.38
2018-10-02T02:15:34.810Z,100751.11
2018-10-02T02:18:04.066Z,100754.33
2018-10-02T02:20:31.879Z,100751.20
2018-10-02T02:22:59.662Z,100755.66
2018-10-02T02:25:27.423Z,100747.86
2018-10-02T02:27:55.456Z,100749.63
2018-10-02T02:30:29.959Z,100749.20
2018-10-02T02:32:57.782Z,100752.04
2018-10-02T02:35:25.610Z,100757.27
2018-10-02T02:37:53.455Z,100754.11
2018-10-02T02:40:21.554Z,100762.43
2018-10-02T02:42:49.334Z,100757.19
2018-10-02T02:45:17.107Z,100755.41
2018-10-02T02:47:50.683Z,100753.64
2018-10-02T02:50:24.188Z,100759.66
2018-10-02T02:53:03.382Z,100759.66
2018-10-02T02:55:31.215Z,100758.09
2018-10-02T02:57:59.145Z,100768.85
2018-10-02T03:00:27.186Z,100767.42
2018-10-02T03:02:58.611Z,100773.83
2018-10-02T03:05:26.455Z,100772.87
2018-10-02T03:07:54.247Z,100774.91
2018-10-02T03:10:22.079Z,100778.94
2018-10-02T03:12:49.979Z,100781.06
2018-10-02T03:15:17.761Z,100779.42
2018-10-02T03:17:45.512Z,100778.47
2018-10-02T03:20:13.311Z,100783.31
2018-10-02T03:22:41.127Z,100784.00
2018-10-02T03:25:09.035Z,100786.48
2018-10-02T03:27:36.811Z,100791.79
2018-10-02T03:30:04.861Z,100807.52
2018-10-02T03:32:32.644Z,100802.09
2018-10-02T03:35:00.454Z,100801.62
2018-10-02T03:37:28.604Z,100797.38
2018-10-02T03:39:56.409Z,100799.25
2018-10-02T03:42:24.191Z,100789.94
2018-10-02T03:44:52.110Z,100791.23
2018-10-02T03:47:19.947Z,100794.41
2018-10-02T03:49:47.773Z,100800.80
2018-10-02T03:52:15.565Z,100798.69
2018-10-02T03:54:43.344Z,100801.86
2018-10-02T03:57:11.146Z,100801.86
2018-10-02T03:59:39.058Z,100803.41
2018-10-02T04:02:07.036Z,100803.86
2018-10-02T04:04:34.889Z,100804.20
2018-10-02T04:07:02.699Z,100802.22
2018-10-02T04:09:30.634Z,100798.42
2018-10-02T04:11:58.556Z,100796.88
2018-10-02T04:14:26.368Z,100808.36
2018-10-02T04:16:54.447Z,100805.64
2018-10-02T04:19:22.282Z,100806.47
2018-10-02T04:21:50.055Z,100804.22
2018-10-02T04:24:17.995Z,100800.56
2018-10-02T04:26:45.832Z,100800.09
2018-10-02T04:29:13.675Z,100782.47
2018-10-02T04:31:41.526Z,100790.74
2018-10-02T04:34:09.364Z,100791.81
2018-10-02T04:36:37.142Z,100792.64
2018-10-02T04:39:07.450Z,100794.17
2018-10-02T04:41:35.413Z,100789.31
2018-10-02T04:44:03.323Z,100788.62
2018-10-02T04:46:31.109Z,100789.91
2018-10-02T04:48:59.243Z,100797.84
2018-10-02T04:51:35.882Z,100800.32
2018-10-02T04:54:03.697Z,100795.94
2018-10-02T04:56:31.609Z,100799.85
2018-10-02T04:58:59.432Z,100801.03
2018-10-02T05:01:28.250Z,100796.31
2018-10-02T05:03:56.092Z,100788.74
2018-10-02T05:06:23.947Z,100791.91
2018-10-02T05:08:51.873Z,100800.80
2018-10-02T05:11:20.311Z,100803.52
2018-10-02T05:13:48.126Z,100805.89
2018-10-02T05:16:15.923Z,100799.14
2018-10-02T05:18:43.759Z,100791.91
2018-10-02T05:21:11.569Z,100796.77
2018-10-02T05:23:39.375Z,100794.77
2018-10-02T05:26:07.240Z,100791.09
2018-10-02T05:28:35.019Z,100791.22
2018-10-02T05:31:02.829Z,100784.58
2018-10-02T05:33:30.635Z,100782.59
2018-10-02T05:35:58.467Z,100783.77
2018-10-02T05:38:37.972Z,100791.22
2018-10-02T05:41:05.821Z,100789.66
2018-10-02T05:43:33.654Z,100792.04
2018-10-02T05:46:01.623Z,100788.36
2018-10-02T05:48:36.302Z,100794.17
2018-10-02T05:51:04.100Z,100788.97
2018-10-02T05:53:31.889Z,100791.78
2018-10-02T05:55:59.663Z,100787.27
2018-10-02T05:58:27.502Z,100788.35
2018-10-02T06:00:55.351Z,100787.14
2018-10-02T06:03:23.350Z,100791.08
2018-10-02T06:05:51.123Z,100798.28
2018-10-02T06:08:18.911Z,100801.23
2018-10-02T06:10:46.687Z,100805.73
2018-10-02T06:13:15.406Z,100799.58
2018-10-02T06:15:43.206Z,100800.63
2018-10-02T06:18:11.054Z,100802.75
2018-10-02T06:20:38.835Z,100804.88
2018-10-02T06:23:06.656Z,100808.90
2018-10-02T06:25:34.486Z,100804.70
2018-10-02T06:28:02.356Z,100811.55
2018-10-02T06:30:30.592Z,100806.00
2018-10-02T06:32:58.451Z,100794.25
2018-10-02T06:35:26.263Z,100801.11
2018-10-02T06:37:54.040Z,100795.77
2018-10-02T06:40:21.829Z,100799.53
2018-10-02T06:42:49.648Z,100793.63
2018-10-02T06:45:17.403Z,100805.73
2018-10-02T06:47:45.171Z,100808.31
2018-10-02T06:50:12.943Z,100817.09
2018-10-02T06:52:41.038Z,100821.20
2018-10-02T06:55:08.813Z,100821.07
2018-10-02T06:57:37.220Z,100826.33
2018-10-02T07:00:05.295Z,100822.84
2018-10-02T07:02:33.149Z,100828.03
2018-10-02T07:05:01.043Z,100833.91
2018-10-02T07:07:28.848Z,100838.42
2018-10-02T07:09:56.677Z,100843.23
2018-10-02T07:12:24.594Z,100850.66
2018-10-02T07:14:52.455Z,100842.06
2018-10-02T07:17:20.499Z,100838.14
2018-10-02T07:19:48.318Z,100843.77
2018-10-02T07:22:16.130Z,100839.44
2018-10-02T07:24:43.930Z,100846.33
2018-10-02T07:27:11.842Z,100838.68
2018-10-02T07:29:39.545Z,100838.44
2018-10-02T07:32:07.404Z,100836.24
2018-10-02T07:34:35.267Z,100844.41
2018-10-02T07:37:03.151Z,100841.42
2018-10-02T07:39:30.951Z,100840.80
2018-10-02T07:41:58.828Z,100841.17
2018-10-02T07:44:26.662Z,100841.06
2018-10-02T07:46:54.609Z,100846.16
2018-10-02T07:49:22.495Z,100846.72
2018-10-02T07:51:50.336Z,100851.84
2018-10-02T07:54:18.183Z,100855.31
2018-10-02T07:56:46.060Z,100861.06
2018-10-02T07:59:13.893Z,100847.51
2018-10-02T08:01:41.719Z,100849.80
2018-10-02T08:04:09.528Z,100851.67
2018-10-02T08:06:37.457Z,100849.34
2018-10-02T08:09:08.296Z,100851.88
2018-10-02T08:11:36.184Z,100849.01
2018-10-02T08:14:04.174Z,100855.06
2018-10-02T08:16:33.110Z,100846.64
2018-10-02T08:19:01.292Z,100847.30
2018-10-02T08:21:29.157Z,100846.03
2018-10-02T08:23:56.969Z,100843.00
2018-10-02T08:26:24.816Z,100840.54
2018-10-02T08:28:52.756Z,100842.88
2018-10-02T08:31:20.741Z,100843.05
2018-10-02T08:33:48.891Z,100844.72
2018-10-02T08:36:16.880Z,100838.13
2018-10-02T08:38:44.687Z,100829.38
2018-10-02T08:41:12.415Z,100829.19
2018-10-02T08:43:40.276Z,100835.97
2018-10-02T08:46:08.340Z,100837.48
2018-10-02T08:48:36.197Z,100828.44
2018-10-02T08:51:09.344Z,100827.45
2018-10-02T08:53:38.198Z,100822.16
2018-10-02T08:56:06.191Z,100821.61
2018-10-02T08:58:34.033Z,100819.68
2018-10-02T09:01:01.905Z,100824.41
2018-10-02T09:03:29.762Z,100829.96
2018-10-02T09:05:57.568Z,100821.97
2018-10-02T09:08:28.491Z,100822.36
2018-10-02T09:10:56.307Z,100827.45
2018-10-02T09:13:24.460Z,100823.56
2018-10-02T09:15:52.431Z,100817.56
2018-10-02T09:18:20.222Z,100810.98
2018-10-02T09:20:48.150Z,100817.48
2018-10-02T09:23:15.944Z,100823.09
2018-10-02T09:25:43.889Z,100808.98
2018-10-02T09:28:11.843Z,100814.39
2018-10-02T09:30:45.404Z,100812.27
2018-10-02T09:33:18.750Z,100809.78
2018-10-02T09:35:52.475Z,100806.38
2018-10-02T09:38:25.999Z,100807.16
2018-10-02T09:40:59.614Z,100807.23
2018-10-02T09:43:40.396Z,100801.22
2018-10-02T09:46:08.260Z,100805.34
2018-10-02T09:48:36.171Z,100808.73
2018-10-02T09:51:04.104Z,100812.94
2018-10-02T09:53:31.882Z,100809.45
2018-10-02T09:56:00.090Z,100802.25
2018-10-02T09:58:28.188Z,100791.22
2018-10-02T10:01:01.757Z,100789.05
2018-10-02T10:03:29.636Z,100784.11
2018-10-02T10:05:57.562Z,100796.13
2018-10-02T10:08:25.477Z,100797.28
2018-10-02T10:10:53.372Z,100801.89
2018-10-02T10:13:21.271Z,100802.70
2018-10-02T10:15:49.202Z,100809.38
2018-10-02T10:18:18.749Z,100806.16
2018-10-02T10:20:46.598Z,100810.59
2018-10-02T10:23:18.387Z,100806.66
2018-10-02T10:25:46.410Z,100802.88
2018-10-02T10:28:14.263Z,100804.02
2018-10-02T10:30:42.148Z,100808.64
2018-10-02T10:33:09.966Z,100806.65
2018-10-02T10:35:37.941Z,100809.47
2018-10-02T10:38:06.201Z,100810.75
2018-10-02T10:40:34.191Z,100815.75
2018-10-02T10:43:02.193Z,100821.28
2018-10-02T10:45:30.018Z,100808.42
2018-10-02T10:47:57.861Z,100803.92
2018-10-02T10:50:25.821Z,100802.53
2018-10-02T10:52:53.825Z,100812.34
2018-10-02T10:55:27.271Z,100809.44
2018-10-02T10:57:55.071Z,100809.34
2018-10-02T11:00:22.951Z,100807.61
2018-10-02T11:02:50.820Z,100803.13
2018-10-02T11:05:18.622Z,100797.85
2018-10-02T11:07:46.491Z,100787.24
2018-10-02T11:10:15.683Z,100788.69
2018-10-02T11:12:43.644Z,100772.45
2018-10-02T11:15:11.676Z,100767.70
2018-10-02T11:17:39.535Z,100762.78
2018-10-02T11:20:07.739Z,100782.99
2018-10-02T11:22:35.860Z,100787.45
2018-10-02T11:25:07.317Z,100786.95
2018-10-02T11:27:35.213Z,100783.34
2018-10-02T11:30:03.159Z,100778.25
2018-10-02T11:32:31.046Z,100779.06
2018-10-02T11:34:58.946Z,100773.27
2018-10-02T11:37:26.975Z,100764.77
2018-10-02T11:39:54.787Z,100759.67
2018-10-02T11:42:22.643Z,100763.59
2018-10-02T11:44:50.613Z,100763.44
2018-10-02T11:47:18.359Z,100765.91
2018-10-02T11:49:46.239Z,100757.19
2018-10-02T11:52:14.071Z,100750.80
2018-10-02T11:54:41.843Z,100756.86
2018-10-02T11:57:09.663Z,100756.70
2018-10-02T11:59:37.483Z,100754.56
2018-10-02T12:02:05.389Z,100755.55
2018-10-02T12:04:33.283Z,100750.63
2018-10-02T12:07:01.615Z,100746.35
2018-10-02T12:09:29.431Z,100749.98
2018-10-02T12:11:57.243Z,100746.53
2018-10-02T12:14:25.325Z,100734.85
2018-10-02T12:16:52.850Z,100731.06
2018-10-02T12:19:20.693Z,100732.55
2018-10-02T12:21:48.443Z,100727.78
2018-10-02T12:24:16.266Z,100718.44
2018-10-02T12:26:44.100Z,100712.85
2018-10-02T12:29:11.941Z,100715.14
2018-10-02T12:31:39.830Z,100724.34
2018-10-02T12:34:07.762Z,100715.95
2018-10-02T12:36:35.734Z,100716.28
2018-10-02T12:39:05.365Z,100716.74
2018-10-02T12:41:33.184Z,100710.66
2018-10-02T12:44:01.100Z,100717.77
2018-10-02T12:46:29.023Z,100719.90
2018-10-02T12:48:56.880Z,100714.81
2018-10-02T12:51:24.724Z,100713.84
2018-10-02T12:53:52.534Z,100701.18
2018-10-02T12:56:20.359Z,100709.23
2018-10-02T12:58:48.275Z,100707.91
2018-10-02T13:01:16.471Z,100709.55
2018-10-02T13:03:44.275Z,100713.66
2018-10-02T13:06:12.095Z,100713.33
2018-10-02T13:08:39.904Z,100707.41
2018-10-02T13:11:11.671Z,100709.56
2018-10-02T13:13:39.779Z,100696.73
2018-10-02T13:16:07.715Z,100695.91
2018-10-02T13:18:35.634Z,100696.23
2018-10-02T13:21:03.561Z,100689.98
2018-10-02T13:23:31.359Z,100689.15
2018-10-02T13:25:59.127Z,100688.65
2018-10-02T13:28:26.987Z,100689.78
2018-10-02T13:30:54.780Z,100686.36
2018-10-02T13:33:22.567Z,100689.47
2018-10-02T13:35:50.399Z,100688.81
2018-10-02T13:38:18.238Z,100674.02
2018-10-02T13:40:46.074Z,100672.91
2018-10-02T13:43:13.837Z,100670.44
2018-10-02T13:45:41.687Z,100667.45
2018-10-02T13:48:09.459Z,100668.77
2018-10-02T13:50:37.384Z,100663.03
2018-10-02T13:53:05.431Z,100661.89
2018-10-02T13:55:33.332Z,100658.62
2018-10-02T13:58:01.229Z,100657.98
2018-10-02T14:00:29.135Z,100655.64
2018-10-02T14:02:57.004Z,100651.70
2018-10-02T14:05:24.792Z,100651.05
2018-10-02T14:07:52.731Z,100656.02
2018-10-02T14:10:20.559Z,100649.77
2018-10-02T14:12:48.381Z,100652.73
2018-10-02T14:15:16.154Z,100654.36
2018-10-02T14:17:44.009Z,100650.76
2018-10-02T14:20:11.995Z,100660.77
2018-10-02T14:22:39.752Z,100655.67
2018-10-02T14:25:10.792Z,100659.77
2018-10-02T14:27:38.642Z,100654.66
2018-10-02T14:30:06.515Z,100657.97
2018-10-02T14:32:34.684Z,100653.20
2018-10-02T14:35:02.857Z,100650.73
2018-10-02T14:37:30.735Z,100655.51
2018-10-02T14:39:58.516Z,100651.40
2018-10-02T14:42:26.319Z,100653.70
2018-10-02T14:44:54.107Z,100652.38
2018-10-02T14:47:21.895Z,100654.05
2018-10-02T14:49:49.667Z,100649.45
2018-10-02T14:52:17.466Z,100645.33
2018-10-02T14:54:45.242Z,100651.23
2018-10-02T14:57:13.104Z,100650.42
2018-10-02T14:59:41.063Z,100649.12
2018-10-02T15:02:08.907Z,100649.93
2018-10-02T15:04:36.770Z,100651.27
2018-10-02T15:07:04.994Z,100651.24
2018-10-02T15:09:32.779Z,100649.11
2018-10-02T15:12:00.715Z,100648.77
2018-10-02T15:14:28.491Z,100645.84
2018-10-02T15:16:56.292Z,100641.55
2018-10-02T15:19:24.649Z,100650.42
2018-10-02T15:21:52.831Z,100642.71
2018-10-02T15:24:20.951Z,100634.32
2018-10-02T15:26:48.716Z,100636.13
2018-10-02T15:29:16.559Z,100642.39
2018-10-02T15:31:44.668Z,100642.55
2018-10-02T15:34:12.477Z,100656.33
2018-10-02T15:36:40.308Z,100652.72
2018-10-02T15:39:09.727Z,100657.66
2018-10-02T15:41:38.219Z,100658.96
2018-10-02T15:44:06.107Z,100658.14
2018-10-02T15:46:33.887Z,100659.62
2018-10-02T15:49:50.861Z,100662.77
2018-10-02T15:52:28.513Z,100664.22
2018-10-02T15:54:59.864Z,100672.77
2018-10-02T15:57:27.615Z,100679.66
2018-10-02T15:59:55.512Z,100681.78
2018-10-02T16:02:23.345Z,100685.57
2018-10-02T16:04:51.227Z,100693.40
2018-10-02T16:07:18.975Z,100696.19
2018-10-02T16:09:46.920Z,100701.30
2018-10-02T16:12:14.884Z,100700.63
2018-10-02T16:14:42.775Z,100701.23
2018-10-02T16:17:10.926Z,100704.86
2018-10-02T16:19:38.891Z,100699.59
2018-10-02T16:22:06.797Z,100696.83
2018-10-02T16:24:35.027Z,100705.83
2018-10-02T16:27:02.833Z,100704.84
2018-10-02T16:29:30.869Z,100705.97
2018-10-02T16:31:59.143Z,100709.70
2018-10-02T16:34:27.050Z,100707.35
2018-10-02T16:36:54.888Z,100711.06
2018-10-02T16:39:22.643Z,100709.95
2018-10-02T16:41:50.500Z,100709.59
2018-10-02T16:44:18.255Z,100714.21
2018-10-02T16:46:46.092Z,100726.05
2018-10-02T16:49:13.839Z,100730.25
2018-10-02T16:51:41.651Z,100729.09
2018-10-02T16:54:09.546Z,100722.67
2018-10-02T16:56:37.490Z,100718.11
2018-10-02T16:59:05.353Z,100720.41
2018-10-02T17:01:33.240Z,100721.03
2018-10-02T17:04:01.400Z,100725.45
2018-10-02T17:06:29.438Z,100738.70
2018-10-02T17:08:57.514Z,100739.12
2018-10-02T17:11:25.391Z,100740.92
2018-10-02T17:13:53.291Z,100742.55
2018-10-02T17:16:21.149Z,100738.73
2018-10-02T17:18:48.985Z,100738.73
2018-10-02T17:21:16.884Z,100739.52
2018-10-02T17:23:44.718Z,100744.11
2018-10-02T17:26:12.594Z,100741.86
2018-10-02T17:28:40.654Z,100741.53
2018-10-02T17:31:08.439Z,100745.47
2018-10-02T17:33:36.378Z,100744.23
2018-10-02T17:36:04.200Z,100739.39
2018-10-02T17:38:32.062Z,100737.92
2018-10-02T17:40:59.875Z,100736.56
2018-10-02T17:43:27.880Z,100748.64
2018-10-02T17:45:55.667Z,100760.61
2018-10-02T17:48:23.524Z,100764.02
2018-10-02T17:50:51.860Z,100770.70
2018-10-02T17:53:19.783Z,100760.65
2018-10-02T17:55:47.659Z,100763.22
2018-10-02T17:58:15.531Z,100765.67
2018-10-02T18:00:43.419Z,100767.28
2018-10-02T18:03:11.208Z,100772.29
2018-10-02T18:05:39.918Z,100773.55
2018-10-02T18:08:07.782Z,100779.89
2018-10-02T18:10:36.256Z,100774.87
2018-10-02T18:13:04.149Z,100769.63
2018-10-02T18:15:32.079Z,100773.88
2018-10-02T18:18:00.144Z,100779.11
2018-10-02T18:20:28.286Z,100779.72
2018-10-02T18:22:56.113Z,100778.52
2018-10-02T18:25:24.105Z,100785.67
2018-10-02T18:27:52.183Z,100785.35
2018-10-02T18:30:20.082Z,100786.10
2018-10-02T18:32:47.971Z,100790.47
2018-10-02T18:35:15.839Z,100784.03
2018-10-02T18:37:43.717Z,100785.23
2018-10-02T18:40:11.680Z,100785.94
2018-10-02T18:42:39.459Z,100786.80
2018-10-02T18:45:07.371Z,100787.30
2018-10-02T18:47:35.234Z,100784.80
2018-10-02T18:50:03.216Z,100781.34
2018-10-02T18:52:31.004Z,100780.87
2018-10-02T18:54:58.828Z,100785.00
2018-10-02T18:57:26.737Z,100790.25
2018-10-02T18:59:54.640Z,100792.33
2018-10-02T19:02:22.587Z,100798.72
2018-10-02T19:04:50.471Z,100806.09
2018-10-02T19:07:18.816Z,100809.72
2018-10-02T19:09:46.739Z,100815.16
2018-10-02T19:12:16.081Z,100815.23
2018-10-02T19:14:43.980Z,100821.45
2018-10-02T19:17:12.776Z,100826.84
2018-10-02T19:19:46.450Z,100827.94
2018-10-02T19:22:14.420Z,100833.09
2018-10-02T19:24:42.309Z,100830.17
2018-10-02T19:27:10.214Z,100826.36
2018-10-02T19:29:38.264Z,100836.08
2018-10-02T19:32:11.175Z,100832.30
2018-10-02T19:34:39.247Z,100834.89
2018-10-02T19:37:12.979Z,100825.39
2018-10-02T19:39:40.833Z,100812.53
2018-10-02T19:42:08.772Z,100805.49
2018-10-02T19:44:37.399Z,100810.19
2018-10-02T19:47:05.313Z,100825.11
2018-10-02T19:49:34.252Z,100828.27
2018-10-02T19:52:10.492Z,100826.86
2018-10-02T19:54:39.240Z,100822.77
2018-10-02T19:57:08.830Z,100810.35
2018-10-02T19:59:36.807Z,100819.66
2018-10-02T20:02:04.723Z,100813.64
2018-10-02T20:04:32.669Z,100804.95
2018-10-02T20:07:02.212Z,100794.78
2018-10-02T20:09:31.296Z,100790.59
2018-10-02T20:11:59.461Z,100797.41
2018-10-02T20:14:27.453Z,100812.98
2018-10-02T20:16:55.364Z,100813.04
2018-10-02T20:19:23.197Z,100811.44
2018-10-02T20:21:51.309Z,100818.05
2018-10-02T20:24:19.201Z,100823.80
2018-10-02T20:26:47.019Z,100824.51
2018-10-02T20:29:14.963Z,100818.55
2018-10-02T20:31:44.642Z,100822.15
2018-10-02T20:34:12.685Z,100832.59
2018-10-02T20:36:40.636Z,100835.15
2018-10-02T20:39:09.404Z,100836.85
2018-10-02T20:41:37.353Z,100847.10
2018-10-02T20:44:05.513Z,100840.30
2018-10-02T20:46:33.612Z,100836.08
2018-10-02T20:49:01.764Z,100831.83
2018-10-02T20:51:29.571Z,100832.38
2018-10-02T20:53:57.816Z,100831.05
2018-10-02T20:56:26.261Z,100830.05
2018-10-02T20:58:54.059Z,100826.26
2018-10-02T21:01:22.042Z,100823.88
2018-10-02T21:03:49.901Z,100823.40
2018-10-02T21:06:17.883Z,100828.59
2018-10-02T21:08:45.740Z,100835.64
2018-10-02T21:11:13.681Z,100833.41
2018-10-02T21:13:41.892Z,100830.72
2018-10-02T21:16:09.752Z,100819.00
2018-10-02T21:18:37.841Z,100813.02
2018-10-02T21:21:05.701Z,100806.86
2018-10-02T21:23:33.739Z,100801.34
2018-10-02T21:26:01.708Z,100812.27
2018-10-02T21:28:29.571Z,100807.80
2018-10-02T21:30:57.752Z,100811.89
2018-10-02T21:33:25.540Z,100806.53
2018-10-02T21:35:53.431Z,100805.72
2018-10-02T21:38:21.571Z,100812.44
2018-10-02T21:40:49.420Z,100809.30
2018-10-02T21:43:17.275Z,100816.09
2018-10-02T21:45:45.465Z,100814.52
2018-10-02T21:48:13.273Z,100809.81
2018-10-02T21:50:41.115Z,100810.09
2018-10-02T21:53:09.023Z,100812.27
2018-10-02T21:55:37.000Z,100812.81
2018-10-02T21:58:04.899Z,100808.00
2018-10-02T22:00:33.697Z,100816.92
2018-10-02T22:03:01.955Z,100821.67
2018-10-02T22:05:29.892Z,100818.89
2018-10-02T22:07:58.183Z,100825.65
2018-10-02T22:10:26.087Z,100833.03
2018-10-02T22:12:53.939Z,100830.83
2018-10-02T22:15:24.372Z,100820.78
2018-10-02T22:17:52.771Z,100813.78
2018-10-02T22:20:20.624Z,100808.11
2018-10-02T22:22:48.502Z,100815.12
2018-10-02T22:25:16.392Z,100811.38
2018-10-02T22:27:44.303Z,100814.56
2018-10-02T22:30:13.403Z,100808.19
2018-10-02T22:32:41.574Z,100813.37
2018-10-02T22:35:09.491Z,100819.42
2018-10-02T22:37:37.384Z,100819.92
2018-10-02T22:40:05.423Z,100816.27
2018-10-02T22:42:33.258Z,100817.58
2018-10-02T22:45:01.312Z,100818.07
2018-10-02T22:47:29.234Z,100819.53
2018-10-02T22:49:57.162Z,100805.06
2018-10-02T22:52:25.060Z,100795.63
2018-10-02T22:54:52.994Z,100789.77
2018-10-02T22:57:20.939Z,100796.65
2018-10-02T22:59:48.908Z,100797.78
2018-10-02T23:02:16.838Z,100800.58
2018-10-02T23:04:44.733Z,100801.67
2018-10-02T23:07:12.686Z,100790.86
2018-10-02T23:09:40.688Z,100791.78
2018-10-02T23:12:08.599Z,100793.43
2018-10-02T23:14:36.543Z,100788.12
2018-10-02T23:17:04.459Z,100789.61
2018-10-02T23:19:32.337Z,100799.66
2018-10-02T23:22:00.229Z,100806.87
2018-10-02T23:24:28.112Z,100803.64
2018-10-02T23:26:56.380Z,100799.42
2018-10-02T23:29:24.341Z,100794.08
2018-10-02T23:31:52.231Z,100793.09
2018-10-02T23:34:20.271Z,100794.45
2018-10-02T23:36:48.176Z,100789.59
2018-10-02T23:39:16.040Z,100788.28
2018-10-02T23:41:43.941Z,100787.52
2018-10-02T23:44:11.907Z,100777.78
2018-10-02T23:46:40.015Z,100771.40
2018-10-02T23:49:07.879Z,100769.11
2018-10-02T23:51:36.177Z,100767.35
2018-10-02T23:54:04.072Z,100785.38
2018-10-02T23:56:31.929Z,100789.02
2018-10-02T23:58:59.847Z,100788.95
